Allentown, PA

6:20 PM EDT on July 01, 2015 (GMT -0400)
South Filmore Street | | Change Station
CLOSE
Current Station
Personal Weather Station
Location: Allentown, PA
Elevation: 341 ft
Nearby Weather Stations

Elev 341 ft 40.59 °N, 75.45 °W | Updated 7 minutes ago

Mostly Cloudy
Mostly Cloudy
81.0 °F
Feels Like 82 °F
N
4.2
Wind Variable Wind from SSE

Today
High -- | Low -- °F
--% Chance of Precip.
Yesterday
High -- | Low -- °F
Precip. -- in
5:34 AM 8:36 PM
Full, 100% visible
Pressure 29.83 in
Visibility 10.0 miles
Clouds Mostly Cloudy 5000 ft
Mostly Cloudy 8000 ft
Heat Index 82 °F
Dew Point 63 °F
Humidity 55%
Rainfall 0.41 in
Snow Depth Not available.
UV 1 out of 12
Pollen .50 out of 12
Air Quality Not available.
Flu Activity Not available.
METAR KXLL 012155Z AUTO 24008G16KT 10SM BKN050 BKN080 26/13 A2983 RMK AO2

More Conditions Fewer Conditions

Pressure 29.83 in
Visibility 10.0 miles
Clouds Mostly Cloudy 5000 ft
Mostly Cloudy 8000 ft
Heat Index 82 °F
Dew Point 63 °F
Humidity 55%
Rainfall 0.41 in
Snow Depth Not available.
UV 1 out of 12
Pollen .50 out of 12
Air Quality Not available.
Flu Activity Not available.
METAR KXLL 012155Z AUTO 24008G16KT 10SM BKN050 BKN080 26/13 A2983 RMK AO2

More Conditions Fewer Conditions

10-Day Weather Forecast

×

Almanac

Astronomy

Jul. 01, 2015 Rise Set
Actual Time
Civil Twilight
Nautical Twilight
Astronomical Twilight
Moon
Length of Visible Light
Length of Day
Tomorrow will be .
, % of the Moon is Illuminated

Today's Extremes

State Highs State Lows

Community

WunderPhotos

Upload Photos

1,834,319 photos uploaded!

WunderBlogs® & News

Nearby

Air Quality

  Air Quality AQ Index Pollutant
Not available.

Snow Depth

Station Depth Elevation

Earthquake Activity

City Distance Mag. Time & Date
Minimum magnitude displayed is 2.5.

Coastal Water Temperatures

Place Temperature

Stations

Nearby Weather Stations

Station Location Temp. Windchill Dew Point Humidity Wind Precip. Elev Updated Type